ノヴォシビルスク の空港の天気 - METARとTAF

トルマチェヴォ空港(ノヴォシビルスク) ( UNNT / OVB ) - ロシア ノヴォシビルスク
飛行場実況気象(Metar)
観測時間01/23 11:30 OMST (01/23 05:30 UTC)
風向・風速北西 4m/s
視程10km以上
天気現象弱い雪
なし
気温-33℃
湿度67%
気圧1051hPa
METARUNNT 230530Z 31004MPS 9999 -SN NSC M33/M37 Q1051 R25/820155 R34/820155 NOSIG RMK QFE778/1037
過去の天気等 Google飛行場航空写真 Wunderground天気予報

過去48時間のMETAR

飛行場予報(TAF)
発表時間: 1/23 11:00 OMST (1/23 05:00 UTC)
予報対象時間: 23日12時 OMST ~ 24日12時 OMST
風向・風速北 3m/s 瞬間風速 8m/s
視程10km以上
全天の8割程度の雲 雲底高度 610m
23日12時 OMST ~ 23日18時 OMST に一時的に
風向・風速北西 5m/s 瞬間風速 10m/s
視程3,100m
天気現象弱いしゅう雪
全天の8割程度の積乱雲 雲底高度 610m
24日1時 OMST ~ 24日7時 OMST に一時的に
全天の8割程度の雲 雲底高度 340m
TAF UNNT 230500Z 2306/2406 36003G08MPS 9999 BKN020
TEMPO 2306/2312 32005G10MPS 3100 -SHSN BKN020CB
TEMPO 2319/2401 BKN011